Accueil
METAR-TAF:

METAR-TAF

Aéroports :

Aéroport de Béziers-Cap d'Agde

Béziers, France

latitude: 43-19N, longitude: 003-21E, altitude: 17 m

Observation

Le bulletin a été fait il y a 22 minutes, à 16:00 UTC
Vent 9 kt de est/nord-est
Température 10°C
Humidité 34%
Pression 1028 hPa
Visibilité 10 km ou plus
pas de nuages en-dessous de 1500 mètres et pas de cumulonimbus.

METAR: LFMU 191600Z AUTO 06009KT CAVOK 10/M05 Q1028 BECMG 36010KT

Heure: 17:22 (16:22 UTC)

Prévision

Le bulletin a été fait il y a 2 heures et 22 minutes, à 14:00 UTC
Prévision valable du 19 à 15 UTC au 20 à 15 UTC
Vent 10 kt de nord
Visibilité 10 km ou plus
pas de nuages en-dessous de 1500 mètres et pas de cumulonimbus.

TAF: LFMU 191400Z 1915/2015 36010KT CAVOK

Observations et prévisions météorologiques de plus de 4000 aéroports (messages METAR et TAF).

Les stations disponibles sont représentées par des disques jaunes et rouges sur la carte.

Passer la souris dessus pour voir le nom de la station.

Cliquer dessus pour voir les observations et prévisions météorologiques.

Pour changer de carte: cliquez sur les boutons verts avec une croix noire pour zoomer, sur le bouton vert avec un tiret pour effectuer un zoom arrière, ou sur les flèches vertes pour les cartes adjacentes.


METAR-TAF: